sensor_id;sensor_type;location;lat;lon;timestamp;P1;durP1;ratioP1;P2;durP2;ratioP2
50815;SDS011;39717;47.324;8.788;2023-03-26T00:00:10;2.90;;;2.00;;
50815;SDS011;39717;47.324;8.788;2023-03-26T00:02:37;2.20;;;1.50;;
50815;SDS011;39717;47.324;8.788;2023-03-26T00:05:04;1.60;;;1.40;;
50815;SDS011;39717;47.324;8.788;2023-03-26T00:07:31;2.80;;;1.57;;
50815;SDS011;39717;47.324;8.788;2023-03-26T00:09:57;3.03;;;1.63;;
50815;SDS011;39717;47.324;8.788;2023-03-26T00:12:23;2.37;;;1.50;;
50815;SDS011;39717;47.324;8.788;2023-03-26T00:14:49;4.00;;;1.57;;
50815;SDS011;39717;47.324;8.788;2023-03-26T00:17:17;2.33;;;1.63;;
50815;SDS011;39717;47.324;8.788;2023-03-26T00:19:42;2.90;;;1.60;;
50815;SDS011;39717;47.324;8.788;2023-03-26T00:22:09;2.37;;;1.90;;
50815;SDS011;39717;47.324;8.788;2023-03-26T00:24:37;2.57;;;1.60;;
50815;SDS011;39717;47.324;8.788;2023-03-26T00:27:04;2.10;;;1.70;;
50815;SDS011;39717;47.324;8.788;2023-03-26T00:29:30;3.33;;;1.50;;
50815;SDS011;39717;47.324;8.788;2023-03-26T00:31:57;4.37;;;1.70;;
50815;SDS011;39717;47.324;8.788;2023-03-26T00:34:23;3.37;;;1.77;;
50815;SDS011;39717;47.324;8.788;2023-03-26T00:36:50;2.27;;;1.47;;
50815;SDS011;39717;47.324;8.788;2023-03-26T00:39:19;3.53;;;1.40;;
50815;SDS011;39717;47.324;8.788;2023-03-26T00:41:48;5.00;;;1.70;;
50815;SDS011;39717;47.324;8.788;2023-03-26T00:44:18;2.40;;;1.70;;
50815;SDS011;39717;47.324;8.788;2023-03-26T00:46:44;1.90;;;1.63;;
50815;SDS011;39717;47.324;8.788;2023-03-26T00:49:10;4.13;;;1.70;;
50815;SDS011;39717;47.324;8.788;2023-03-26T00:51:39;2.00;;;1.63;;
50815;SDS011;39717;47.324;8.788;2023-03-26T00:54:06;2.10;;;1.70;;
50815;SDS011;39717;47.324;8.788;2023-03-26T00:56:32;4.03;;;2.37;;
50815;SDS011;39717;47.324;8.788;2023-03-26T00:58:59;5.23;;;1.70;;
50815;SDS011;39717;47.324;8.788;2023-03-26T01:01:26;2.23;;;1.50;;
50815;SDS011;39717;47.324;8.788;2023-03-26T01:03:58;3.70;;;1.50;;
50815;SDS011;39717;47.324;8.788;2023-03-26T01:06:48;3.77;;;1.50;;
50815;SDS011;39717;47.324;8.788;2023-03-26T01:09:16;2.43;;;1.60;;
50815;SDS011;39717;47.324;8.788;2023-03-26T01:11:43;2.97;;;1.40;;
50815;SDS011;39717;47.324;8.788;2023-03-26T01:14:11;2.60;;;1.40;;
50815;SDS011;39717;47.324;8.788;2023-03-26T01:16:44;3.73;;;1.70;;
50815;SDS011;39717;47.324;8.788;2023-03-26T01:19:22;1.57;;;1.40;;
50815;SDS011;39717;47.324;8.788;2023-03-26T01:22:09;1.50;;;1.40;;
50815;SDS011;39717;47.324;8.788;2023-03-26T01:24:39;3.47;;;1.80;;
50815;SDS011;39717;47.324;8.788;2023-03-26T01:27:11;2.07;;;1.40;;
50815;SDS011;39717;47.324;8.788;2023-03-26T01:29:53;7.57;;;2.07;;
50815;SDS011;39717;47.324;8.788;2023-03-26T01:32:49;2.77;;;1.60;;
50815;SDS011;39717;47.324;8.788;2023-03-26T01:35:40;3.23;;;1.57;;
50815;SDS011;39717;47.324;8.788;2023-03-26T01:41:04;1.50;;;1.30;;
50815;SDS011;39717;47.324;8.788;2023-03-26T01:43:38;3.53;;;1.73;;
50815;SDS011;39717;47.324;8.788;2023-03-26T01:46:20;4.03;;;1.73;;
50815;SDS011;39717;47.324;8.788;2023-03-26T01:48:48;2.60;;;1.43;;
50815;SDS011;39717;47.324;8.788;2023-03-26T01:51:23;2.03;;;1.40;;
50815;SDS011;39717;47.324;8.788;2023-03-26T01:53:52;4.90;;;1.70;;
50815;SDS011;39717;47.324;8.788;2023-03-26T02:02:10;3.60;;;1.37;;
50815;SDS011;39717;47.324;8.788;2023-03-26T02:04:48;1.97;;;1.13;;
50815;SDS011;39717;47.324;8.788;2023-03-26T02:07:26;4.03;;;1.53;;
50815;SDS011;39717;47.324;8.788;2023-03-26T02:10:10;2.47;;;1.50;;
50815;SDS011;39717;47.324;8.788;2023-03-26T02:12:40;2.83;;;1.40;;
50815;SDS011;39717;47.324;8.788;2023-03-26T02:15:08;3.37;;;1.60;;
50815;SDS011;39717;47.324;8.788;2023-03-26T02:17:35;5.67;;;1.80;;
50815;SDS011;39717;47.324;8.788;2023-03-26T02:20:08;3.00;;;1.80;;
50815;SDS011;39717;47.324;8.788;2023-03-26T02:22:36;3.73;;;1.90;;
50815;SDS011;39717;47.324;8.788;2023-03-26T02:25:14;3.77;;;2.13;;
50815;SDS011;39717;47.324;8.788;2023-03-26T02:27:43;3.70;;;1.77;;
50815;SDS011;39717;47.324;8.788;2023-03-26T02:30:11;2.97;;;1.60;;
50815;SDS011;39717;47.324;8.788;2023-03-26T02:32:40;2.60;;;2.03;;
50815;SDS011;39717;47.324;8.788;2023-03-26T02:35:07;4.20;;;2.00;;
50815;SDS011;39717;47.324;8.788;2023-03-26T02:37:34;3.00;;;1.73;;
50815;SDS011;39717;47.324;8.788;2023-03-26T02:40:00;5.97;;;2.13;;
50815;SDS011;39717;47.324;8.788;2023-03-26T02:42:26;3.10;;;1.80;;
50815;SDS011;39717;47.324;8.788;2023-03-26T02:44:52;3.30;;;2.00;;
50815;SDS011;39717;47.324;8.788;2023-03-26T02:47:17;2.70;;;1.90;;
50815;SDS011;39717;47.324;8.788;2023-03-26T02:49:43;3.60;;;1.50;;
50815;SDS011;39717;47.324;8.788;2023-03-26T02:52:09;3.97;;;2.37;;
50815;SDS011;39717;47.324;8.788;2023-03-26T02:54:35;1.70;;;1.40;;
50815;SDS011;39717;47.324;8.788;2023-03-26T02:57:01;4.00;;;1.60;;
50815;SDS011;39717;47.324;8.788;2023-03-26T02:59:27;3.37;;;1.70;;
50815;SDS011;39717;47.324;8.788;2023-03-26T03:01:53;1.60;;;1.50;;
50815;SDS011;39717;47.324;8.788;2023-03-26T03:04:19;2.47;;;1.67;;
50815;SDS011;39717;47.324;8.788;2023-03-26T03:06:46;2.37;;;1.60;;
50815;SDS011;39717;47.324;8.788;2023-03-26T03:09:17;2.67;;;1.33;;
50815;SDS011;39717;47.324;8.788;2023-03-26T03:11:43;4.13;;;1.33;;
50815;SDS011;39717;47.324;8.788;2023-03-26T03:14:08;3.27;;;1.57;;
50815;SDS011;39717;47.324;8.788;2023-03-26T03:16:34;1.50;;;1.40;;
50815;SDS011;39717;47.324;8.788;2023-03-26T03:19:00;2.93;;;1.27;;
50815;SDS011;39717;47.324;8.788;2023-03-26T03:21:26;4.53;;;1.40;;
50815;SDS011;39717;47.324;8.788;2023-03-26T03:23:53;2.23;;;1.67;;
50815;SDS011;39717;47.324;8.788;2023-03-26T03:26:20;3.40;;;1.60;;
50815;SDS011;39717;47.324;8.788;2023-03-26T03:28:47;4.37;;;1.30;;
50815;SDS011;39717;47.324;8.788;2023-03-26T03:31:14;1.97;;;1.30;;
50815;SDS011;39717;47.324;8.788;2023-03-26T03:33:41;1.77;;;1.30;;
50815;SDS011;39717;47.324;8.788;2023-03-26T03:36:11;1.87;;;1.50;;
50815;SDS011;39717;47.324;8.788;2023-03-26T03:38:39;1.40;;;1.10;;
50815;SDS011;39717;47.324;8.788;2023-03-26T03:41:06;2.20;;;1.17;;
50815;SDS011;39717;47.324;8.788;2023-03-26T03:43:32;2.30;;;1.30;;
50815;SDS011;39717;47.324;8.788;2023-03-26T03:45:59;1.80;;;1.20;;
50815;SDS011;39717;47.324;8.788;2023-03-26T03:48:25;3.77;;;1.20;;
50815;SDS011;39717;47.324;8.788;2023-03-26T03:50:52;3.93;;;1.37;;
50815;SDS011;39717;47.324;8.788;2023-03-26T03:53:20;3.33;;;1.67;;
50815;SDS011;39717;47.324;8.788;2023-03-26T03:55:53;2.23;;;1.20;;
50815;SDS011;39717;47.324;8.788;2023-03-26T03:58:21;3.27;;;1.50;;
50815;SDS011;39717;47.324;8.788;2023-03-26T04:00:50;3.70;;;1.30;;
50815;SDS011;39717;47.324;8.788;2023-03-26T04:03:16;1.47;;;1.30;;
50815;SDS011;39717;47.324;8.788;2023-03-26T04:05:44;2.50;;;1.33;;
50815;SDS011;39717;47.324;8.788;2023-03-26T04:08:16;5.17;;;1.60;;
50815;SDS011;39717;47.324;8.788;2023-03-26T04:10:43;2.20;;;1.30;;
50815;SDS011;39717;47.324;8.788;2023-03-26T04:13:10;4.87;;;1.50;;
50815;SDS011;39717;47.324;8.788;2023-03-26T04:15:37;1.90;;;1.43;;
50815;SDS011;39717;47.324;8.788;2023-03-26T04:18:03;4.10;;;1.60;;
50815;SDS011;39717;47.324;8.788;2023-03-26T04:20:35;2.93;;;1.90;;
50815;SDS011;39717;47.324;8.788;2023-03-26T04:23:03;2.47;;;1.50;;
50815;SDS011;39717;47.324;8.788;2023-03-26T04:25:29;5.93;;;2.10;;
50815;SDS011;39717;47.324;8.788;2023-03-26T04:27:58;4.63;;;1.77;;
50815;SDS011;39717;47.324;8.788;2023-03-26T04:30:31;1.83;;;1.43;;
50815;SDS011;39717;47.324;8.788;2023-03-26T04:33:01;2.23;;;1.30;;
50815;SDS011;39717;47.324;8.788;2023-03-26T04:35:31;2.57;;;1.40;;
50815;SDS011;39717;47.324;8.788;2023-03-26T04:38:01;2.77;;;1.60;;
50815;SDS011;39717;47.324;8.788;2023-03-26T04:40:30;3.03;;;1.80;;
50815;SDS011;39717;47.324;8.788;2023-03-26T04:43:01;2.27;;;1.43;;
50815;SDS011;39717;47.324;8.788;2023-03-26T04:45:27;3.30;;;1.60;;
50815;SDS011;39717;47.324;8.788;2023-03-26T04:47:57;2.70;;;1.50;;
50815;SDS011;39717;47.324;8.788;2023-03-26T04:50:24;4.87;;;1.37;;
50815;SDS011;39717;47.324;8.788;2023-03-26T04:52:51;2.13;;;1.20;;
50815;SDS011;39717;47.324;8.788;2023-03-26T04:55:28;4.47;;;1.53;;
50815;SDS011;39717;47.324;8.788;2023-03-26T04:58:02;1.87;;;1.10;;
50815;SDS011;39717;47.324;8.788;2023-03-26T05:00:30;1.67;;;1.00;;
50815;SDS011;39717;47.324;8.788;2023-03-26T05:02:56;2.13;;;1.33;;
50815;SDS011;39717;47.324;8.788;2023-03-26T05:05:25;1.07;;;0.97;;
50815;SDS011;39717;47.324;8.788;2023-03-26T05:07:53;1.27;;;0.80;;
50815;SDS011;39717;47.324;8.788;2023-03-26T05:10:19;1.50;;;0.77;;
50815;SDS011;39717;47.324;8.788;2023-03-26T05:12:46;1.00;;;0.90;;
50815;SDS011;39717;47.324;8.788;2023-03-26T05:15:12;1.37;;;1.00;;
50815;SDS011;39717;47.324;8.788;2023-03-26T05:17:39;2.90;;;1.03;;
50815;SDS011;39717;47.324;8.788;2023-03-26T05:20:10;2.17;;;1.00;;
50815;SDS011;39717;47.324;8.788;2023-03-26T05:22:50;1.33;;;0.90;;
50815;SDS011;39717;47.324;8.788;2023-03-26T05:25:16;1.07;;;0.80;;
50815;SDS011;39717;47.324;8.788;2023-03-26T05:27:42;1.57;;;1.47;;
50815;SDS011;39717;47.324;8.788;2023-03-26T05:30:11;1.63;;;1.10;;
50815;SDS011;39717;47.324;8.788;2023-03-26T05:32:41;2.00;;;1.30;;
50815;SDS011;39717;47.324;8.788;2023-03-26T05:35:07;1.63;;;1.00;;
50815;SDS011;39717;47.324;8.788;2023-03-26T05:37:34;2.63;;;1.20;;
50815;SDS011;39717;47.324;8.788;2023-03-26T05:40:01;2.57;;;1.50;;
50815;SDS011;39717;47.324;8.788;2023-03-26T05:42:28;1.10;;;1.10;;
50815;SDS011;39717;47.324;8.788;2023-03-26T05:44:53;3.43;;;1.03;;
50815;SDS011;39717;47.324;8.788;2023-03-26T05:47:19;3.10;;;1.07;;
50815;SDS011;39717;47.324;8.788;2023-03-26T05:49:45;2.00;;;1.53;;
50815;SDS011;39717;47.324;8.788;2023-03-26T05:52:11;1.53;;;1.10;;
50815;SDS011;39717;47.324;8.788;2023-03-26T05:54:40;1.93;;;1.07;;
50815;SDS011;39717;47.324;8.788;2023-03-26T05:57:06;2.73;;;0.90;;
50815;SDS011;39717;47.324;8.788;2023-03-26T05:59:32;3.57;;;1.30;;
50815;SDS011;39717;47.324;8.788;2023-03-26T06:01:57;2.47;;;1.13;;
50815;SDS011;39717;47.324;8.788;2023-03-26T06:04:23;1.33;;;1.10;;
50815;SDS011;39717;47.324;8.788;2023-03-26T06:06:49;1.70;;;1.00;;
50815;SDS011;39717;47.324;8.788;2023-03-26T06:09:17;2.27;;;1.27;;
50815;SDS011;39717;47.324;8.788;2023-03-26T06:11:42;1.40;;;1.20;;
50815;SDS011;39717;47.324;8.788;2023-03-26T06:14:08;1.30;;;1.20;;
50815;SDS011;39717;47.324;8.788;2023-03-26T06:16:34;2.77;;;1.23;;
50815;SDS011;39717;47.324;8.788;2023-03-26T06:19:00;3.80;;;1.37;;
50815;SDS011;39717;47.324;8.788;2023-03-26T06:21:25;1.63;;;1.30;;
50815;SDS011;39717;47.324;8.788;2023-03-26T06:23:52;3.67;;;1.57;;
50815;SDS011;39717;47.324;8.788;2023-03-26T06:26:19;1.87;;;1.70;;
50815;SDS011;39717;47.324;8.788;2023-03-26T06:28:45;3.07;;;1.53;;
50815;SDS011;39717;47.324;8.788;2023-03-26T06:31:11;3.20;;;1.50;;
50815;SDS011;39717;47.324;8.788;2023-03-26T06:33:37;2.73;;;1.40;;
50815;SDS011;39717;47.324;8.788;2023-03-26T06:36:03;2.83;;;1.47;;
50815;SDS011;39717;47.324;8.788;2023-03-26T06:38:29;3.67;;;1.60;;
50815;SDS011;39717;47.324;8.788;2023-03-26T06:41:02;5.23;;;1.60;;
50815;SDS011;39717;47.324;8.788;2023-03-26T06:43:30;1.93;;;1.20;;
50815;SDS011;39717;47.324;8.788;2023-03-26T06:46:00;1.50;;;1.40;;
50815;SDS011;39717;47.324;8.788;2023-03-26T06:48:26;2.50;;;1.57;;
50815;SDS011;39717;47.324;8.788;2023-03-26T06:50:52;1.53;;;1.23;;
50815;SDS011;39717;47.324;8.788;2023-03-26T06:53:18;1.20;;;1.10;;
50815;SDS011;39717;47.324;8.788;2023-03-26T06:55:44;2.63;;;1.23;;
50815;SDS011;39717;47.324;8.788;2023-03-26T06:58:11;1.37;;;1.20;;
50815;SDS011;39717;47.324;8.788;2023-03-26T07:00:37;9.77;;;2.40;;
50815;SDS011;39717;47.324;8.788;2023-03-26T07:03:03;2.77;;;1.30;;
50815;SDS011;39717;47.324;8.788;2023-03-26T07:05:30;3.57;;;1.70;;
50815;SDS011;39717;47.324;8.788;2023-03-26T07:07:56;5.20;;;1.47;;
50815;SDS011;39717;47.324;8.788;2023-03-26T07:10:22;2.63;;;1.37;;
50815;SDS011;39717;47.324;8.788;2023-03-26T07:12:48;3.03;;;1.70;;
50815;SDS011;39717;47.324;8.788;2023-03-26T07:15:13;2.00;;;1.63;;
50815;SDS011;39717;47.324;8.788;2023-03-26T07:17:39;4.57;;;2.10;;
50815;SDS011;39717;47.324;8.788;2023-03-26T07:20:05;3.63;;;1.60;;
50815;SDS011;39717;47.324;8.788;2023-03-26T07:22:32;2.73;;;1.70;;
50815;SDS011;39717;47.324;8.788;2023-03-26T07:25:00;4.53;;;2.20;;
50815;SDS011;39717;47.324;8.788;2023-03-26T07:27:50;3.90;;;1.70;;
50815;SDS011;39717;47.324;8.788;2023-03-26T07:30:35;3.30;;;1.70;;
50815;SDS011;39717;47.324;8.788;2023-03-26T07:41:01;3.87;;;1.50;;
50815;SDS011;39717;47.324;8.788;2023-03-26T07:46:42;2.17;;;1.73;;
50815;SDS011;39717;47.324;8.788;2023-03-26T07:49:11;2.07;;;1.43;;
50815;SDS011;39717;47.324;8.788;2023-03-26T07:51:38;4.03;;;1.43;;
50815;SDS011;39717;47.324;8.788;2023-03-26T07:54:04;2.60;;;1.53;;
50815;SDS011;39717;47.324;8.788;2023-03-26T08:10:25;3.17;;;1.50;;
50815;SDS011;39717;47.324;8.788;2023-03-26T08:15:45;1.73;;;1.50;;
50815;SDS011;39717;47.324;8.788;2023-03-26T08:18:36;2.10;;;1.27;;
50815;SDS011;39717;47.324;8.788;2023-03-26T08:21:17;3.53;;;1.90;;
50815;SDS011;39717;47.324;8.788;2023-03-26T08:26:56;2.53;;;1.40;;
50815;SDS011;39717;47.324;8.788;2023-03-26T08:32:18;3.60;;;1.70;;
50815;SDS011;39717;47.324;8.788;2023-03-26T08:34:44;2.67;;;1.70;;
50815;SDS011;39717;47.324;8.788;2023-03-26T08:37:10;2.13;;;1.60;;
50815;SDS011;39717;47.324;8.788;2023-03-26T08:39:37;1.57;;;1.20;;
50815;SDS011;39717;47.324;8.788;2023-03-26T08:58:44;1.60;;;1.50;;
50815;SDS011;39717;47.324;8.788;2023-03-26T09:07:07;2.30;;;1.60;;
50815;SDS011;39717;47.324;8.788;2023-03-26T09:26:46;2.97;;;1.60;;
50815;SDS011;39717;47.324;8.788;2023-03-26T09:32:14;5.10;;;2.10;;
50815;SDS011;39717;47.324;8.788;2023-03-26T09:35:44;3.10;;;1.90;;
50815;SDS011;39717;47.324;8.788;2023-03-26T09:40:37;2.13;;;1.47;;
50815;SDS011;39717;47.324;8.788;2023-03-26T09:51:16;2.13;;;1.50;;
50815;SDS011;39717;47.324;8.788;2023-03-26T09:54:00;3.90;;;1.50;;
50815;SDS011;39717;47.324;8.788;2023-03-26T10:10:42;1.33;;;0.97;;
50815;SDS011;39717;47.324;8.788;2023-03-26T10:22:44;1.37;;;0.70;;
50815;SDS011;39717;47.324;8.788;2023-03-26T10:24:47;1.03;;;0.80;;
50815;SDS011;39717;47.324;8.788;2023-03-26T10:28:04;0.80;;;0.80;;
50815;SDS011;39717;47.324;8.788;2023-03-26T10:33:36;1.73;;;0.80;;
50815;SDS011;39717;47.324;8.788;2023-03-26T10:41:58;1.57;;;0.87;;
50815;SDS011;39717;47.324;8.788;2023-03-26T10:47:25;2.07;;;1.00;;
50815;SDS011;39717;47.324;8.788;2023-03-26T10:50:02;2.20;;;1.37;;
50815;SDS011;39717;47.324;8.788;2023-03-26T10:52:52;1.10;;;1.00;;
50815;SDS011;39717;47.324;8.788;2023-03-26T11:00:35;1.50;;;1.10;;
50815;SDS011;39717;47.324;8.788;2023-03-26T11:11:43;1.10;;;1.00;;
50815;SDS011;39717;47.324;8.788;2023-03-26T11:19:27;2.33;;;1.60;;
50815;SDS011;39717;47.324;8.788;2023-03-26T11:22:05;3.90;;;2.00;;
50815;SDS011;39717;47.324;8.788;2023-03-26T11:33:17;1.93;;;1.43;;
50815;SDS011;39717;47.324;8.788;2023-03-26T11:35:49;2.83;;;1.30;;
50815;SDS011;39717;47.324;8.788;2023-03-26T11:41:19;3.03;;;1.50;;
50815;SDS011;39717;47.324;8.788;2023-03-26T11:43:55;2.20;;;1.53;;
50815;SDS011;39717;47.324;8.788;2023-03-26T11:46:27;1.50;;;1.40;;
50815;SDS011;39717;47.324;8.788;2023-03-26T11:48:54;3.10;;;1.93;;
50815;SDS011;39717;47.324;8.788;2023-03-26T11:53:58;2.43;;;1.50;;
50815;SDS011;39717;47.324;8.788;2023-03-26T12:01:47;1.73;;;0.90;;
50815;SDS011;39717;47.324;8.788;2023-03-26T12:04:26;2.50;;;1.10;;
50815;SDS011;39717;47.324;8.788;2023-03-26T12:07:05;4.10;;;1.50;;
50815;SDS011;39717;47.324;8.788;2023-03-26T12:09:52;1.23;;;1.10;;
50815;SDS011;39717;47.324;8.788;2023-03-26T12:12:23;2.40;;;1.10;;
50815;SDS011;39717;47.324;8.788;2023-03-26T12:15:17;4.70;;;1.27;;
50815;SDS011;39717;47.324;8.788;2023-03-26T12:17:45;1.53;;;1.30;;
50815;SDS011;39717;47.324;8.788;2023-03-26T12:27:49;1.60;;;1.47;;
50815;SDS011;39717;47.324;8.788;2023-03-26T12:30:38;1.73;;;1.40;;
50815;SDS011;39717;47.324;8.788;2023-03-26T12:33:16;3.17;;;1.60;;
50815;SDS011;39717;47.324;8.788;2023-03-26T12:35:52;1.33;;;1.23;;
50815;SDS011;39717;47.324;8.788;2023-03-26T12:38:21;1.83;;;1.20;;
50815;SDS011;39717;47.324;8.788;2023-03-26T12:41:11;3.77;;;1.20;;
50815;SDS011;39717;47.324;8.788;2023-03-26T12:43:39;2.43;;;1.30;;
50815;SDS011;39717;47.324;8.788;2023-03-26T12:49:13;2.83;;;1.80;;
50815;SDS011;39717;47.324;8.788;2023-03-26T12:57:06;5.37;;;2.00;;
50815;SDS011;39717;47.324;8.788;2023-03-26T13:13:24;6.53;;;2.97;;
50815;SDS011;39717;47.324;8.788;2023-03-26T13:16:22;2.40;;;1.90;;
50815;SDS011;39717;47.324;8.788;2023-03-26T13:26:43;2.53;;;1.40;;
50815;SDS011;39717;47.324;8.788;2023-03-26T13:39:32;0.83;;;0.83;;
50815;SDS011;39717;47.324;8.788;2023-03-26T13:42:05;2.43;;;0.87;;
50815;SDS011;39717;47.324;8.788;2023-03-26T13:47:20;4.00;;;0.77;;
50815;SDS011;39717;47.324;8.788;2023-03-26T13:49:49;2.00;;;0.60;;
50815;SDS011;39717;47.324;8.788;2023-03-26T13:52:25;1.07;;;0.43;;
50815;SDS011;39717;47.324;8.788;2023-03-26T13:55:05;0.60;;;0.60;;
50815;SDS011;39717;47.324;8.788;2023-03-26T13:57:34;0.57;;;0.57;;
50815;SDS011;39717;47.324;8.788;2023-03-26T14:00:05;0.60;;;0.60;;
50815;SDS011;39717;47.324;8.788;2023-03-26T14:02:48;0.40;;;0.40;;
50815;SDS011;39717;47.324;8.788;2023-03-26T14:05:20;0.73;;;0.60;;
50815;SDS011;39717;47.324;8.788;2023-03-26T14:10:20;0.40;;;0.40;;
50815;SDS011;39717;47.324;8.788;2023-03-26T14:12:51;1.67;;;0.50;;
50815;SDS011;39717;47.324;8.788;2023-03-26T14:15:21;0.67;;;0.50;;
50815;SDS011;39717;47.324;8.788;2023-03-26T14:17:50;0.30;;;0.30;;
50815;SDS011;39717;47.324;8.788;2023-03-26T14:25:48;0.40;;;0.40;;
50815;SDS011;39717;47.324;8.788;2023-03-26T14:33:26;0.70;;;0.60;;
50815;SDS011;39717;47.324;8.788;2023-03-26T14:36:16;0.50;;;0.50;;
50815;SDS011;39717;47.324;8.788;2023-03-26T14:41:26;0.60;;;0.50;;
50815;SDS011;39717;47.324;8.788;2023-03-26T14:54:16;2.23;;;0.90;;
50815;SDS011;39717;47.324;8.788;2023-03-26T14:57:06;2.73;;;0.70;;
50815;SDS011;39717;47.324;8.788;2023-03-26T15:13:11;1.67;;;0.80;;
50815;SDS011;39717;47.324;8.788;2023-03-26T15:21:32;0.40;;;0.40;;
50815;SDS011;39717;47.324;8.788;2023-03-26T15:29:54;0.57;;;0.57;;
50815;SDS011;39717;47.324;8.788;2023-03-26T15:46:31;0.27;;;0.27;;
50815;SDS011;39717;47.324;8.788;2023-03-26T15:51:57;0.50;;;0.50;;
50815;SDS011;39717;47.324;8.788;2023-03-26T15:54:53;0.30;;;0.30;;
50815;SDS011;39717;47.324;8.788;2023-03-26T15:57:30;1.53;;;0.30;;
50815;SDS011;39717;47.324;8.788;2023-03-26T16:00:17;0.30;;;0.30;;
50815;SDS011;39717;47.324;8.788;2023-03-26T16:06:18;0.20;;;0.20;;
50815;SDS011;39717;47.324;8.788;2023-03-26T16:09:39;0.93;;;0.40;;
50815;SDS011;39717;47.324;8.788;2023-03-26T16:11:58;0.50;;;0.50;;
50815;SDS011;39717;47.324;8.788;2023-03-26T16:14:45;2.57;;;0.53;;
50815;SDS011;39717;47.324;8.788;2023-03-26T16:17:28;0.83;;;0.67;;
50815;SDS011;39717;47.324;8.788;2023-03-26T16:26:20;0.93;;;0.50;;
50815;SDS011;39717;47.324;8.788;2023-03-26T16:31:18;0.60;;;0.47;;
50815;SDS011;39717;47.324;8.788;2023-03-26T16:36:33;0.53;;;0.50;;
50815;SDS011;39717;47.324;8.788;2023-03-26T16:41:30;0.20;;;0.20;;
50815;SDS011;39717;47.324;8.788;2023-03-26T16:44:30;1.60;;;0.50;;
50815;SDS011;39717;47.324;8.788;2023-03-26T16:52:22;0.40;;;0.40;;
50815;SDS011;39717;47.324;8.788;2023-03-26T16:57:36;0.40;;;0.40;;
50815;SDS011;39717;47.324;8.788;2023-03-26T17:07:40;1.27;;;0.80;;
50815;SDS011;39717;47.324;8.788;2023-03-26T17:10:20;0.40;;;0.40;;
50815;SDS011;39717;47.324;8.788;2023-03-26T17:15:31;1.40;;;1.07;;
50815;SDS011;39717;47.324;8.788;2023-03-26T17:18:44;1.87;;;1.00;;
50815;SDS011;39717;47.324;8.788;2023-03-26T17:20:59;1.10;;;1.00;;
50815;SDS011;39717;47.324;8.788;2023-03-26T17:33:45;2.00;;;1.70;;
50815;SDS011;39717;47.324;8.788;2023-03-26T17:41:08;1.40;;;1.10;;
50815;SDS011;39717;47.324;8.788;2023-03-26T17:43:42;0.93;;;0.60;;
50815;SDS011;39717;47.324;8.788;2023-03-26T17:48:35;0.97;;;0.90;;
50815;SDS011;39717;47.324;8.788;2023-03-26T17:51:05;0.90;;;0.87;;
50815;SDS011;39717;47.324;8.788;2023-03-26T17:53:39;0.50;;;0.50;;
50815;SDS011;39717;47.324;8.788;2023-03-26T17:56:11;1.10;;;0.70;;
50815;SDS011;39717;47.324;8.788;2023-03-26T17:58:41;1.77;;;0.60;;
50815;SDS011;39717;47.324;8.788;2023-03-26T18:03:55;0.70;;;0.70;;
50815;SDS011;39717;47.324;8.788;2023-03-26T18:21:07;1.00;;;0.90;;
50815;SDS011;39717;47.324;8.788;2023-03-26T18:23:35;1.07;;;0.80;;
50815;SDS011;39717;47.324;8.788;2023-03-26T18:28:50;0.60;;;0.60;;
50815;SDS011;39717;47.324;8.788;2023-03-26T18:31:18;0.87;;;0.80;;
50815;SDS011;39717;47.324;8.788;2023-03-26T18:33:46;1.57;;;0.80;;
50815;SDS011;39717;47.324;8.788;2023-03-26T18:36:13;1.67;;;1.40;;
50815;SDS011;39717;47.324;8.788;2023-03-26T18:38:40;1.13;;;0.90;;
50815;SDS011;39717;47.324;8.788;2023-03-26T18:41:08;1.50;;;0.90;;
50815;SDS011;39717;47.324;8.788;2023-03-26T18:43:39;1.00;;;1.00;;
50815;SDS011;39717;47.324;8.788;2023-03-26T18:46:06;0.70;;;0.70;;
50815;SDS011;39717;47.324;8.788;2023-03-26T18:48:32;1.50;;;0.90;;
50815;SDS011;39717;47.324;8.788;2023-03-26T18:51:04;0.77;;;0.77;;
50815;SDS011;39717;47.324;8.788;2023-03-26T18:53:35;0.83;;;0.83;;
50815;SDS011;39717;47.324;8.788;2023-03-26T18:56:16;1.20;;;0.90;;
50815;SDS011;39717;47.324;8.788;2023-03-26T18:58:43;0.70;;;0.70;;
50815;SDS011;39717;47.324;8.788;2023-03-26T19:01:14;1.20;;;0.90;;
50815;SDS011;39717;47.324;8.788;2023-03-26T19:03:41;1.43;;;1.07;;
50815;SDS011;39717;47.324;8.788;2023-03-26T19:06:08;1.37;;;1.27;;
50815;SDS011;39717;47.324;8.788;2023-03-26T19:08:35;1.20;;;1.10;;
50815;SDS011;39717;47.324;8.788;2023-03-26T19:11:06;2.37;;;2.10;;
50815;SDS011;39717;47.324;8.788;2023-03-26T19:13:34;1.10;;;1.00;;
50815;SDS011;39717;47.324;8.788;2023-03-26T19:16:06;1.30;;;1.00;;
50815;SDS011;39717;47.324;8.788;2023-03-26T19:18:35;8.03;;;1.53;;
50815;SDS011;39717;47.324;8.788;2023-03-26T19:21:01;0.80;;;0.73;;
50815;SDS011;39717;47.324;8.788;2023-03-26T19:23:32;0.60;;;0.60;;
50815;SDS011;39717;47.324;8.788;2023-03-26T19:26:00;1.13;;;0.60;;
50815;SDS011;39717;47.324;8.788;2023-03-26T19:28:35;0.90;;;0.60;;
50815;SDS011;39717;47.324;8.788;2023-03-26T19:33:33;0.37;;;0.30;;
50815;SDS011;39717;47.324;8.788;2023-03-26T19:36:01;0.40;;;0.40;;
50815;SDS011;39717;47.324;8.788;2023-03-26T19:38:36;0.60;;;0.60;;
50815;SDS011;39717;47.324;8.788;2023-03-26T19:41:03;0.40;;;0.40;;
50815;SDS011;39717;47.324;8.788;2023-03-26T19:43:29;0.50;;;0.50;;
50815;SDS011;39717;47.324;8.788;2023-03-26T19:45:56;0.97;;;0.70;;
50815;SDS011;39717;47.324;8.788;2023-03-26T19:48:24;0.97;;;0.80;;
50815;SDS011;39717;47.324;8.788;2023-03-26T19:51:00;1.40;;;0.80;;
50815;SDS011;39717;47.324;8.788;2023-03-26T19:53:32;0.67;;;0.50;;
50815;SDS011;39717;47.324;8.788;2023-03-26T19:56:03;0.57;;;0.57;;
50815;SDS011;39717;47.324;8.788;2023-03-26T19:58:30;0.83;;;0.73;;
50815;SDS011;39717;47.324;8.788;2023-03-26T20:00:56;0.50;;;0.50;;
50815;SDS011;39717;47.324;8.788;2023-03-26T20:03:24;0.63;;;0.57;;
50815;SDS011;39717;47.324;8.788;2023-03-26T20:05:51;1.23;;;0.60;;
50815;SDS011;39717;47.324;8.788;2023-03-26T20:08:17;0.70;;;0.70;;
50815;SDS011;39717;47.324;8.788;2023-03-26T20:10:43;4.53;;;1.80;;
50815;SDS011;39717;47.324;8.788;2023-03-26T20:13:14;3.70;;;2.30;;
50815;SDS011;39717;47.324;8.788;2023-03-26T20:15:41;3.27;;;1.53;;
50815;SDS011;39717;47.324;8.788;2023-03-26T20:18:07;1.27;;;1.17;;
50815;SDS011;39717;47.324;8.788;2023-03-26T20:20:36;1.60;;;1.10;;
50815;SDS011;39717;47.324;8.788;2023-03-26T20:23:07;0.97;;;0.93;;
50815;SDS011;39717;47.324;8.788;2023-03-26T20:25:35;1.23;;;1.10;;
50815;SDS011;39717;47.324;8.788;2023-03-26T20:28:05;1.13;;;1.00;;
50815;SDS011;39717;47.324;8.788;2023-03-26T20:30:32;1.47;;;1.17;;
50815;SDS011;39717;47.324;8.788;2023-03-26T20:32:59;2.27;;;1.40;;
50815;SDS011;39717;47.324;8.788;2023-03-26T20:35:27;1.67;;;0.87;;
50815;SDS011;39717;47.324;8.788;2023-03-26T20:37:53;0.80;;;0.80;;
50815;SDS011;39717;47.324;8.788;2023-03-26T20:40:19;1.33;;;0.80;;
50815;SDS011;39717;47.324;8.788;2023-03-26T20:42:46;1.03;;;0.90;;
50815;SDS011;39717;47.324;8.788;2023-03-26T20:47:39;1.00;;;0.70;;
50815;SDS011;39717;47.324;8.788;2023-03-26T20:50:06;1.23;;;0.80;;
50815;SDS011;39717;47.324;8.788;2023-03-26T20:52:32;1.13;;;0.73;;
50815;SDS011;39717;47.324;8.788;2023-03-26T20:54:59;1.50;;;1.30;;
50815;SDS011;39717;47.324;8.788;2023-03-26T20:57:25;0.93;;;0.83;;
50815;SDS011;39717;47.324;8.788;2023-03-26T20:59:51;1.97;;;1.10;;
50815;SDS011;39717;47.324;8.788;2023-03-26T21:02:19;1.63;;;0.90;;
50815;SDS011;39717;47.324;8.788;2023-03-26T21:04:45;0.70;;;0.63;;
50815;SDS011;39717;47.324;8.788;2023-03-26T21:07:12;1.40;;;1.00;;
50815;SDS011;39717;47.324;8.788;2023-03-26T21:09:39;1.17;;;1.00;;
50815;SDS011;39717;47.324;8.788;2023-03-26T21:15:02;2.33;;;0.93;;
50815;SDS011;39717;47.324;8.788;2023-03-26T21:17:28;0.93;;;0.83;;